Brighton, MI (48114)

6:02 AM EST on February 12, 2016 (GMT -0500)
Fonda Lake | | Change Station
CLOSE
Current Station
Personal Weather Station
Location: Brighton, MI
Elevation: 897 ft
Nearby Weather Stations

Elev 897 ft 42.51 °N, 83.75 °W | Updated 29 seconds ago

Mostly Cloudy
Mostly Cloudy
10.8 °F
Feels Like 4 °F
N
3.6
Wind Variable Wind from WSW
Gusts 6.0 mph

Today
High -- | Low -- °F
--% Chance of Precip.
Yesterday
High -- | Low -- °F
Precip. -- in
Pressure 30.06 in
Visibility 10.0 miles
Clouds Overcast 8000 ft
Windchill 4 °F
Dew Point 6 °F
Humidity 79%
Rainfall 0.00 in
Snow Depth Not available.
7:36 AM 6:02 PM
Waxing Crescent, 19% visible
METAR KOZW 121054Z AUTO 22006KT 10SM OVC080 M11/M14 A3006 RMK AO2 T11061139
Pressure 30.06 in
Visibility 10.0 miles
Clouds Overcast 8000 ft
Windchill 4 °F
Dew Point 6 °F
Humidity 79%
Rainfall 0.00 in
Snow Depth Not available.
7:36 AM 6:02 PM
Waxing Crescent, 19% visible
METAR KOZW 121054Z AUTO 22006KT 10SM OVC080 M11/M14 A3006 RMK AO2 T11061139

10-Day Weather Forecast

Almanac

Astronomy

Feb. 12, 2016 Rise Set
Actual Time
Civil Twilight
Nautical Twilight
Astronomical Twilight
Moon
Length of Visible Light
Length of Day
Tomorrow will be .
, % of the Moon is Illuminated

Today's Extremes

State Highs State Lows

Community

WunderPhotos

Upload Photos

1,892,289 photos uploaded!

WunderBlog® & News

Nearby

Air Quality

  Air Quality AQ Index Pollutant
Not available.

Snow Depth

Station Depth Elevation

Earthquake Activity

City Distance Mag. Time & Date
Minimum magnitude displayed is 2.5.

Coastal Water Temperatures

Place Temperature

Stations

Nearby Weather Stations

Station Location Temp. Windchill Dew Point Humidity Wind Precip. Elev Updated Type
                   

Watches & Warnings

There are currently no watches in effect.